createdAt,value
2018-10-21T00:02:19.931Z,99.90
2018-10-21T00:04:48.016Z,99.90
2018-10-21T00:07:16.091Z,99.90
2018-10-21T00:09:44.223Z,99.90
2018-10-21T00:12:12.291Z,99.90
2018-10-21T00:14:40.383Z,99.90
2018-10-21T00:17:08.463Z,99.90
2018-10-21T00:19:36.555Z,99.90
2018-10-21T00:22:04.947Z,99.90
2018-10-21T00:24:33.027Z,99.90
2018-10-21T00:27:07.724Z,99.90
2018-10-21T00:29:35.747Z,99.90
2018-10-21T00:32:03.830Z,99.90
2018-10-21T00:34:31.951Z,99.90
2018-10-21T00:37:00.031Z,99.90
2018-10-21T00:39:28.094Z,99.90
2018-10-21T00:41:56.166Z,99.90
2018-10-21T00:44:24.271Z,99.90
2018-10-21T00:46:52.344Z,99.90
2018-10-21T00:49:20.451Z,99.90
2018-10-21T00:51:48.566Z,99.90
2018-10-21T00:54:17.091Z,99.90
2018-10-21T00:56:46.493Z,99.90
2018-10-21T00:59:14.566Z,99.90
2018-10-21T01:01:42.838Z,99.90
2018-10-21T01:04:11.019Z,99.90
2018-10-21T01:06:39.189Z,99.90
2018-10-21T01:09:09.044Z,99.90
2018-10-21T01:11:37.488Z,99.90
2018-10-21T01:14:05.609Z,99.90
2018-10-21T01:16:33.703Z,99.90
2018-10-21T01:19:01.783Z,99.90
2018-10-21T01:21:29.875Z,99.90
2018-10-21T01:23:57.946Z,99.90
2018-10-21T01:26:26.027Z,99.90
2018-10-21T01:28:54.118Z,99.90
2018-10-21T01:31:22.179Z,99.90
2018-10-21T01:33:50.270Z,99.90
2018-10-21T01:36:18.647Z,99.90
2018-10-21T01:38:46.459Z,99.90
2018-10-21T01:41:14.542Z,99.90
2018-10-21T01:43:42.615Z,99.90
2018-10-21T01:46:10.716Z,99.90
2018-10-21T01:48:38.778Z,99.90
2018-10-21T01:51:06.912Z,99.90
2018-10-21T01:53:34.943Z,99.90
2018-10-21T01:56:03.051Z,99.90
2018-10-21T01:58:31.099Z,99.90
2018-10-21T02:00:59.696Z,99.90
2018-10-21T02:03:27.792Z,99.90
2018-10-21T02:05:55.858Z,99.90
2018-10-21T02:08:23.942Z,99.90
2018-10-21T02:10:52.038Z,99.90
2018-10-21T02:13:20.139Z,99.90
2018-10-21T02:15:48.231Z,99.90
2018-10-21T02:18:16.354Z,99.90
2018-10-21T02:20:44.438Z,99.90
2018-10-21T02:23:12.508Z,99.90
2018-10-21T02:25:40.593Z,99.90
2018-10-21T02:28:08.731Z,99.90
2018-10-21T02:30:36.759Z,99.90
2018-10-21T02:33:05.108Z,99.90
2018-10-21T02:35:33.119Z,99.90
2018-10-21T02:38:01.203Z,99.90
2018-10-21T02:41:39.467Z,99.90
2018-10-21T02:44:08.756Z,99.90
2018-10-21T02:46:37.426Z,99.90
2018-10-21T02:49:06.421Z,99.90
2018-10-21T02:51:34.495Z,99.90
2018-10-21T02:54:02.567Z,99.90
2018-10-21T02:56:30.665Z,99.90
2018-10-21T02:58:58.742Z,99.90
2018-10-21T03:01:26.807Z,99.90
2018-10-21T03:03:54.886Z,99.90
2018-10-21T03:06:22.978Z,99.90
2018-10-21T03:08:51.098Z,99.90
2018-10-21T03:11:19.183Z,99.90
2018-10-21T03:13:47.251Z,99.90
2018-10-21T03:16:15.338Z,99.90
2018-10-21T03:18:43.421Z,99.90
2018-10-21T03:21:11.549Z,99.90
2018-10-21T03:23:39.575Z,99.90
2018-10-21T03:26:07.642Z,99.90
2018-10-21T03:28:35.729Z,99.90
2018-10-21T03:31:03.823Z,99.90
2018-10-21T03:33:32.281Z,99.90
2018-10-21T03:36:00.343Z,99.90
2018-10-21T03:38:28.587Z,99.90
2018-10-21T03:40:56.867Z,99.90
2018-10-21T03:43:24.957Z,99.90
2018-10-21T03:45:53.063Z,99.90
2018-10-21T03:48:21.167Z,99.90
2018-10-21T03:50:49.251Z,99.90
2018-10-21T03:53:17.368Z,99.90
2018-10-21T03:55:45.471Z,99.90
2018-10-21T03:58:14.135Z,99.90
2018-10-21T04:00:42.146Z,99.90
2018-10-21T04:03:10.248Z,99.90
2018-10-21T04:05:38.490Z,99.90
2018-10-21T04:08:13.134Z,99.90
2018-10-21T04:10:41.222Z,99.90
2018-10-21T04:13:09.342Z,99.90
2018-10-21T04:15:37.438Z,99.90
2018-10-21T04:18:05.506Z,99.90
2018-10-21T04:20:33.575Z,99.90
2018-10-21T04:23:02.674Z,99.90
2018-10-21T04:25:32.182Z,99.90
2018-10-21T04:28:01.214Z,99.90
2018-10-21T04:30:32.231Z,99.90
2018-10-21T04:33:04.088Z,99.90
2018-10-21T04:35:32.688Z,99.90
2018-10-21T04:40:19.196Z,99.90
2018-10-21T04:42:47.687Z,99.90
2018-10-21T04:45:17.062Z,99.90
2018-10-21T04:47:45.171Z,99.90
2018-10-21T04:50:13.522Z,99.90
2018-10-21T04:52:41.650Z,99.90
2018-10-21T04:55:12.838Z,99.90
2018-10-21T04:57:42.049Z,99.90
2018-10-21T05:00:12.074Z,99.90
2018-10-21T05:02:40.179Z,99.90
2018-10-21T05:05:09.314Z,99.90
2018-10-21T05:07:37.791Z,99.90
2018-10-21T05:10:11.404Z,99.90
2018-10-21T05:12:39.459Z,99.90
2018-10-21T05:15:07.598Z,99.90
2018-10-21T05:17:35.655Z,99.90
2018-10-21T05:20:03.731Z,99.90
2018-10-21T05:22:31.823Z,99.90
2018-10-21T05:24:59.907Z,99.90
2018-10-21T05:27:27.994Z,99.90
2018-10-21T05:29:56.079Z,99.90
2018-10-21T05:32:24.150Z,99.90
2018-10-21T05:34:52.225Z,99.90
2018-10-21T05:37:20.294Z,99.90
2018-10-21T05:39:48.364Z,99.90
2018-10-21T05:42:16.462Z,99.90
2018-10-21T05:44:44.551Z,99.90
2018-10-21T05:47:12.741Z,99.90
2018-10-21T05:49:40.771Z,99.90
2018-10-21T05:52:08.894Z,99.90
2018-10-21T05:54:41.012Z,99.90
2018-10-21T05:57:09.089Z,99.90
2018-10-21T05:59:37.158Z,99.90
2018-10-21T06:02:05.266Z,99.90
2018-10-21T06:04:33.383Z,99.90
2018-10-21T06:07:01.486Z,99.90
2018-10-21T06:09:29.558Z,99.90
2018-10-21T06:11:57.638Z,99.90
2018-10-21T06:14:25.709Z,99.90
2018-10-21T06:16:59.356Z,99.90
2018-10-21T06:19:31.954Z,99.90
2018-10-21T06:22:00.057Z,99.90
2018-10-21T06:24:28.131Z,99.90
2018-10-21T06:26:56.366Z,99.90
2018-10-21T06:29:24.526Z,99.90
2018-10-21T06:31:52.587Z,99.90
2018-10-21T06:34:20.687Z,99.90
2018-10-21T06:36:48.758Z,99.90
2018-10-21T06:39:16.900Z,99.90
2018-10-21T06:41:44.971Z,99.90
2018-10-21T06:44:13.087Z,99.90
2018-10-21T06:46:41.175Z,99.90
2018-10-21T06:49:09.296Z,99.90
2018-10-21T06:51:37.342Z,99.90
2018-10-21T06:54:05.410Z,99.90
2018-10-21T06:56:33.637Z,99.90
2018-10-21T06:59:01.596Z,99.90
2018-10-21T07:01:30.294Z,99.90
2018-10-21T07:03:58.396Z,99.90
2018-10-21T07:06:27.570Z,99.90
2018-10-21T07:08:56.958Z,99.90
2018-10-21T07:11:25.054Z,99.90
2018-10-21T07:13:53.141Z,99.90
2018-10-21T07:16:21.275Z,99.90
2018-10-21T07:18:49.903Z,99.90
2018-10-21T07:21:18.255Z,99.90
2018-10-21T07:23:46.635Z,99.90
2018-10-21T07:26:14.718Z,99.90
2018-10-21T07:28:42.786Z,99.90
2018-10-21T07:31:10.899Z,99.90
2018-10-21T07:33:39.020Z,99.90
2018-10-21T07:36:07.228Z,99.90
2018-10-21T07:38:35.378Z,99.90
2018-10-21T07:41:03.475Z,99.90
2018-10-21T07:43:31.559Z,99.90
2018-10-21T07:45:59.690Z,99.90
2018-10-21T07:48:27.772Z,99.90
2018-10-21T07:52:20.745Z,99.90
2018-10-21T07:54:48.815Z,99.90
2018-10-21T07:57:18.115Z,99.90
2018-10-21T07:59:47.219Z,99.90
2018-10-21T08:02:15.319Z,99.90
2018-10-21T08:04:43.406Z,99.90
2018-10-21T08:07:22.963Z,99.90
2018-10-21T08:09:51.855Z,99.90
2018-10-21T08:12:19.911Z,99.90
2018-10-21T08:14:48.123Z,99.90
2018-10-21T08:17:16.127Z,99.90
2018-10-21T08:19:44.206Z,99.90
2018-10-21T08:22:12.402Z,99.90
2018-10-21T08:24:40.407Z,99.90
2018-10-21T08:27:08.523Z,99.90
2018-10-21T08:29:36.562Z,99.90
2018-10-21T08:32:05.098Z,99.90
2018-10-21T08:34:33.155Z,99.90
2018-10-21T08:37:01.230Z,99.90
2018-10-21T08:39:29.322Z,99.90
2018-10-21T08:41:57.407Z,99.90
2018-10-21T08:44:25.590Z,99.90
2018-10-21T08:46:53.655Z,99.90
2018-10-21T08:49:21.869Z,99.90
2018-10-21T08:51:49.814Z,99.90
2018-10-21T08:54:17.901Z,99.90
2018-10-21T08:56:45.980Z,99.90
2018-10-21T08:59:14.036Z,99.90
2018-10-21T09:01:42.160Z,99.90
2018-10-21T09:04:10.290Z,99.90
2018-10-21T09:06:38.310Z,99.90
2018-10-21T09:09:07.969Z,99.90
2018-10-21T09:11:36.046Z,99.90
2018-10-21T09:14:04.130Z,99.90
2018-10-21T09:16:32.270Z,99.90
2018-10-21T09:19:00.321Z,99.90
2018-10-21T09:21:28.415Z,99.90
2018-10-21T09:23:56.507Z,99.90
2018-10-21T09:26:24.609Z,99.90
2018-10-21T09:28:52.671Z,99.90
2018-10-21T09:31:20.755Z,99.90
2018-10-21T09:33:48.827Z,99.90
2018-10-21T09:36:16.906Z,99.90
2018-10-21T09:38:44.983Z,99.90
2018-10-21T09:41:13.055Z,99.90
2018-10-21T09:43:41.126Z,99.90
2018-10-21T09:46:09.292Z,99.90
2018-10-21T09:48:37.290Z,99.90
2018-10-21T09:51:05.376Z,99.90
2018-10-21T09:53:33.450Z,99.90
2018-10-21T09:56:01.518Z,99.90
2018-10-21T09:58:29.629Z,99.90
2018-10-21T10:01:03.046Z,99.90
2018-10-21T10:03:31.106Z,99.90
2018-10-21T10:05:59.195Z,99.90
2018-10-21T10:08:27.302Z,99.90
2018-10-21T10:10:55.395Z,99.90
2018-10-21T10:13:23.464Z,99.90
2018-10-21T10:15:51.567Z,99.90
2018-10-21T10:18:19.630Z,99.90
2018-10-21T10:20:47.885Z,99.90
2018-10-21T10:23:15.814Z,99.90
2018-10-21T10:25:43.899Z,99.90
2018-10-21T10:28:12.050Z,99.90
2018-10-21T10:30:40.059Z,99.90
2018-10-21T10:33:08.119Z,99.90
2018-10-21T10:35:36.203Z,99.90
2018-10-21T10:38:04.275Z,99.90
2018-10-21T10:40:32.360Z,99.90
2018-10-21T10:43:00.412Z,99.90
2018-10-21T10:45:28.483Z,99.90
2018-10-21T10:47:56.546Z,99.90
2018-10-21T10:50:24.647Z,99.90
2018-10-21T10:52:52.766Z,99.90
2018-10-21T10:55:20.891Z,99.90
2018-10-21T10:57:48.886Z,99.90
2018-10-21T11:00:17.053Z,99.90
2018-10-21T11:02:45.031Z,99.90
2018-10-21T11:05:13.115Z,99.90
2018-10-21T11:07:41.187Z,99.90
2018-10-21T11:10:09.755Z,99.50
2018-10-21T11:12:37.791Z,98.60
2018-10-21T11:15:06.635Z,98.30
2018-10-21T11:17:34.734Z,96.10
2018-10-21T11:20:02.970Z,95.00
2018-10-21T11:22:31.082Z,93.10
2018-10-21T11:24:59.165Z,91.70
2018-10-21T11:27:27.235Z,91.70
2018-10-21T11:29:55.286Z,90.00
2018-10-21T11:32:23.360Z,89.20
2018-10-21T11:34:51.439Z,86.50
2018-10-21T11:37:19.666Z,85.20
2018-10-21T11:39:47.574Z,85.10
2018-10-21T11:42:15.647Z,84.90
2018-10-21T11:44:43.725Z,81.70
2018-10-21T11:47:11.795Z,81.40
2018-10-21T11:49:39.875Z,78.90
2018-10-21T11:52:08.033Z,75.10
2018-10-21T11:54:36.030Z,75.00
2018-10-21T11:57:04.470Z,76.30
2018-10-21T11:59:32.543Z,76.80
2018-10-21T12:02:00.670Z,76.40
2018-10-21T12:04:28.713Z,73.90
2018-10-21T12:06:56.816Z,72.40
2018-10-21T12:09:24.851Z,71.10
2018-10-21T12:11:53.016Z,72.60
2018-10-21T12:14:20.982Z,72.70
2018-10-21T12:16:49.051Z,71.70
2018-10-21T12:19:17.193Z,71.40
2018-10-21T12:21:45.194Z,68.70
2018-10-21T12:24:13.278Z,67.50
2018-10-21T12:26:41.351Z,68.40
2018-10-21T12:29:09.478Z,67.60
2018-10-21T12:31:37.478Z,63.70
2018-10-21T12:34:05.586Z,66.10
2018-10-21T12:36:33.627Z,67.30
2018-10-21T12:39:01.720Z,65.30
2018-10-21T12:41:29.795Z,64.60
2018-10-21T12:43:57.870Z,66.10
2018-10-21T12:46:25.939Z,65.30
2018-10-21T12:48:54.041Z,62.50
2018-10-21T12:51:22.086Z,63.20
2018-10-21T12:53:50.180Z,62.80
2018-10-21T12:56:18.211Z,62.00
2018-10-21T12:58:46.275Z,61.20
2018-10-21T13:01:14.714Z,59.50
2018-10-21T13:03:42.686Z,59.70
2018-10-21T13:06:10.767Z,58.50
2018-10-21T13:08:38.826Z,58.40
2018-10-21T13:11:06.887Z,57.50
2018-10-21T13:13:34.942Z,56.00
2018-10-21T13:16:03.072Z,56.70
2018-10-21T13:18:31.062Z,56.50
2018-10-21T13:20:59.115Z,54.80
2018-10-21T13:23:27.182Z,57.10
2018-10-21T13:25:55.411Z,56.10
2018-10-21T13:28:23.666Z,55.70
2018-10-21T13:30:51.568Z,53.80
2018-10-21T13:33:19.650Z,54.20
2018-10-21T13:35:47.707Z,54.60
2018-10-21T13:38:15.773Z,54.80
2018-10-21T13:40:43.831Z,54.40
2018-10-21T13:43:11.978Z,54.20
2018-10-21T13:45:39.972Z,53.40
2018-10-21T13:48:08.043Z,52.60
2018-10-21T13:50:36.126Z,53.30
2018-10-21T13:53:04.270Z,53.70
2018-10-21T13:55:32.267Z,53.00
2018-10-21T13:58:00.334Z,53.50
2018-10-21T14:00:28.425Z,53.70
2018-10-21T14:02:56.466Z,53.30
2018-10-21T14:05:24.536Z,53.70
2018-10-21T14:07:52.607Z,52.80
2018-10-21T14:10:20.678Z,53.10
2018-10-21T14:12:48.750Z,52.30
2018-10-21T14:15:16.825Z,51.90
2018-10-21T14:17:44.917Z,52.20
2018-10-21T14:20:13.099Z,52.70
2018-10-21T14:22:41.151Z,51.60
2018-10-21T14:25:09.281Z,52.00
2018-10-21T14:27:37.404Z,52.70
2018-10-21T14:30:07.624Z,51.50
2018-10-21T14:32:35.656Z,51.70
2018-10-21T14:35:03.711Z,51.20
2018-10-21T14:37:31.782Z,50.40
2018-10-21T14:39:59.870Z,50.20
2018-10-21T14:42:27.937Z,49.50
2018-10-21T14:44:56.054Z,49.90
2018-10-21T14:47:24.079Z,49.60
2018-10-21T14:49:52.148Z,50.50
2018-10-21T14:52:20.199Z,51.70
2018-10-21T14:54:48.263Z,50.50
2018-10-21T14:57:16.332Z,51.90
2018-10-21T14:59:44.391Z,50.70
2018-10-21T15:02:12.484Z,51.10
2018-10-21T15:04:40.530Z,50.10
2018-10-21T15:07:08.587Z,50.60
2018-10-21T15:09:37.082Z,51.40
2018-10-21T15:12:05.373Z,51.90
2018-10-21T15:14:33.370Z,51.30
2018-10-21T15:17:01.433Z,51.40
2018-10-21T15:19:29.496Z,51.60
2018-10-21T15:21:57.582Z,53.10
2018-10-21T15:24:25.607Z,51.90
2018-10-21T15:26:53.672Z,52.10
2018-10-21T15:29:21.746Z,52.50
2018-10-21T15:31:49.812Z,53.10
2018-10-21T15:34:17.981Z,53.60
2018-10-21T15:36:45.971Z,53.80
2018-10-21T15:39:14.047Z,55.50
2018-10-21T15:41:42.123Z,55.50
2018-10-21T15:44:10.312Z,56.10
2018-10-21T15:46:38.246Z,58.40
2018-10-21T15:49:06.298Z,59.70
2018-10-21T15:51:34.367Z,59.30
2018-10-21T15:54:02.439Z,61.80
2018-10-21T15:56:30.506Z,62.20
2018-10-21T15:58:59.578Z,62.80
2018-10-21T16:01:27.665Z,65.00
2018-10-21T16:03:55.741Z,66.20
2018-10-21T16:06:23.859Z,67.10
2018-10-21T16:08:51.918Z,67.30
2018-10-21T16:11:20.011Z,66.80
2018-10-21T16:13:48.091Z,68.90
2018-10-21T16:16:16.210Z,70.10
2018-10-21T16:18:44.234Z,69.10
2018-10-21T16:21:12.303Z,69.00
2018-10-21T16:23:40.381Z,71.90
2018-10-21T16:26:08.570Z,73.50
2018-10-21T16:28:36.506Z,72.70
2018-10-21T16:31:04.950Z,74.90
2018-10-21T16:33:33.013Z,74.80
2018-10-21T16:36:01.075Z,74.90
2018-10-21T16:38:35.777Z,76.00
2018-10-21T16:41:03.799Z,74.50
2018-10-21T16:43:31.858Z,74.50
2018-10-21T16:45:59.951Z,75.50
2018-10-21T16:48:28.023Z,76.50
2018-10-21T16:50:56.119Z,80.00
2018-10-21T16:53:24.260Z,82.00
2018-10-21T16:55:52.234Z,80.10
2018-10-21T16:58:20.303Z,81.90
2018-10-21T17:00:48.470Z,81.50
2018-10-21T17:03:16.552Z,81.80
2018-10-21T17:05:44.568Z,80.80
2018-10-21T17:08:12.630Z,80.60
2018-10-21T17:10:40.966Z,83.70
2018-10-21T17:13:08.848Z,85.90
2018-10-21T17:15:36.870Z,85.00
2018-10-21T17:18:04.985Z,84.90
2018-10-21T17:20:33.056Z,86.30
2018-10-21T17:23:01.128Z,88.20
2018-10-21T17:25:29.206Z,86.80
2018-10-21T17:27:57.298Z,85.40
2018-10-21T17:30:25.388Z,85.60
2018-10-21T17:32:53.451Z,85.40
2018-10-21T17:35:21.606Z,85.40
2018-10-21T17:37:49.699Z,87.40
2018-10-21T17:40:17.843Z,88.00
2018-10-21T17:42:45.845Z,88.10
2018-10-21T17:45:14.850Z,89.40
2018-10-21T17:47:43.089Z,89.70
2018-10-21T17:50:12.839Z,90.40
2018-10-21T17:52:41.225Z,91.50
2018-10-21T17:55:09.360Z,91.50
2018-10-21T17:57:37.378Z,91.40
2018-10-21T18:00:07.455Z,92.40
2018-10-21T18:02:35.582Z,92.40
2018-10-21T18:05:04.615Z,93.00
2018-10-21T18:07:32.691Z,93.60
2018-10-21T18:10:00.826Z,94.50
2018-10-21T18:12:28.858Z,94.50
2018-10-21T18:14:56.983Z,94.70
2018-10-21T18:17:25.063Z,95.70
2018-10-21T18:19:53.144Z,95.40
2018-10-21T18:22:21.227Z,95.80
2018-10-21T18:24:49.290Z,97.90
2018-10-21T18:27:17.383Z,98.50
2018-10-21T18:29:45.481Z,97.30
2018-10-21T18:32:13.538Z,96.70
2018-10-21T18:34:41.614Z,97.00
2018-10-21T18:37:09.751Z,97.40
2018-10-21T18:39:37.815Z,97.40
2018-10-21T18:42:05.946Z,97.40
2018-10-21T18:44:34.035Z,98.10
2018-10-21T18:47:02.387Z,98.70
2018-10-21T18:49:30.474Z,99.10
2018-10-21T18:51:58.609Z,99.40
2018-10-21T18:54:26.635Z,99.30
2018-10-21T18:56:54.724Z,99.70
2018-10-21T18:59:22.824Z,99.90
2018-10-21T19:01:50.906Z,99.90
2018-10-21T19:04:19.108Z,99.90
2018-10-21T19:06:47.109Z,99.90
2018-10-21T19:09:15.213Z,99.90
2018-10-21T19:11:43.283Z,99.90
2018-10-21T19:14:11.438Z,99.90
2018-10-21T19:16:39.515Z,99.90
2018-10-21T19:19:07.841Z,99.90
2018-10-21T19:21:35.923Z,99.90
2018-10-21T19:24:04.060Z,99.90
2018-10-21T19:26:32.219Z,99.90
2018-10-21T19:29:00.301Z,99.90
2018-10-21T19:31:28.382Z,99.90
2018-10-21T19:33:56.594Z,99.90
2018-10-21T19:36:24.602Z,99.90
2018-10-21T19:38:52.771Z,99.90
2018-10-21T19:41:21.331Z,99.90
2018-10-21T19:43:49.478Z,99.90
2018-10-21T19:46:17.622Z,99.90
2018-10-21T19:48:45.802Z,99.90
2018-10-21T19:51:13.997Z,99.90
2018-10-21T19:53:42.071Z,99.90
2018-10-21T19:56:10.131Z,99.90
2018-10-21T19:58:38.248Z,99.90
2018-10-21T20:01:06.481Z,99.90
2018-10-21T20:03:34.475Z,99.90
2018-10-21T20:06:02.572Z,99.90
2018-10-21T20:08:30.618Z,99.90
2018-10-21T20:10:58.670Z,99.90
2018-10-21T20:13:26.719Z,99.90
2018-10-21T20:15:54.800Z,99.90
2018-10-21T20:18:22.999Z,99.90
2018-10-21T20:20:50.953Z,99.90
2018-10-21T20:23:18.998Z,99.90
2018-10-21T20:25:47.054Z,99.90
2018-10-21T20:28:15.217Z,99.90
2018-10-21T20:30:43.229Z,99.90
2018-10-21T20:33:11.326Z,99.90
2018-10-21T20:35:39.327Z,99.90
2018-10-21T20:38:07.455Z,99.90
2018-10-21T20:40:35.478Z,99.90
2018-10-21T20:43:03.572Z,99.90
2018-10-21T20:45:31.643Z,99.90
2018-10-21T20:47:59.737Z,99.90
2018-10-21T20:50:27.766Z,99.90
2018-10-21T20:52:55.854Z,99.90
2018-10-21T20:55:23.927Z,99.90
2018-10-21T20:57:52.066Z,99.90
2018-10-21T21:00:20.150Z,99.90
2018-10-21T21:02:48.227Z,99.90
2018-10-21T21:05:16.282Z,99.90
2018-10-21T21:07:44.378Z,99.90
2018-10-21T21:10:12.553Z,99.90
2018-10-21T21:12:40.539Z,99.90
2018-10-21T21:15:08.854Z,99.90
2018-10-21T21:17:36.934Z,99.90
2018-10-21T21:20:05.260Z,99.90
2018-10-21T21:22:33.327Z,99.90
2018-10-21T21:25:01.419Z,99.90
2018-10-21T21:27:29.624Z,99.90
2018-10-21T21:29:57.708Z,99.90
2018-10-21T21:32:25.806Z,99.90
2018-10-21T21:34:53.860Z,99.90
2018-10-21T21:37:21.955Z,99.90
2018-10-21T21:39:50.166Z,99.90
2018-10-21T21:42:18.468Z,99.90
2018-10-21T21:44:46.548Z,99.90
2018-10-21T21:47:14.674Z,99.90
2018-10-21T21:49:42.871Z,99.90
2018-10-21T21:52:11.123Z,99.90
2018-10-21T21:54:39.111Z,99.90
2018-10-21T21:57:07.182Z,99.90
2018-10-21T21:59:35.250Z,99.90
2018-10-21T22:02:03.431Z,99.90
2018-10-21T22:04:31.609Z,99.90
2018-10-21T22:06:59.749Z,99.90
2018-10-21T22:09:27.834Z,99.90
2018-10-21T22:11:55.943Z,99.90
2018-10-21T22:14:24.040Z,99.90
2018-10-21T22:16:52.154Z,99.90
2018-10-21T22:19:20.282Z,99.90
2018-10-21T22:21:48.394Z,99.90
2018-10-21T22:24:16.552Z,99.90
2018-10-21T22:26:44.598Z,99.90
2018-10-21T22:29:12.670Z,99.90
2018-10-21T22:31:40.760Z,99.90
2018-10-21T22:34:08.817Z,99.90
2018-10-21T22:36:36.898Z,99.90
2018-10-21T22:39:06.020Z,99.90
2018-10-21T22:41:34.079Z,99.90
2018-10-21T22:44:02.150Z,99.90
2018-10-21T22:46:30.253Z,99.90
2018-10-21T22:48:58.309Z,99.90
2018-10-21T22:51:26.385Z,99.90
2018-10-21T22:53:54.562Z,99.90
2018-10-21T22:56:22.558Z,99.90
2018-10-21T22:58:50.630Z,99.90
2018-10-21T23:01:18.707Z,99.90
2018-10-21T23:03:46.802Z,99.90
2018-10-21T23:06:14.970Z,99.90
2018-10-21T23:08:43.021Z,99.90
2018-10-21T23:11:11.131Z,99.90
2018-10-21T23:13:39.195Z,99.90
2018-10-21T23:16:07.846Z,99.90
2018-10-21T23:21:10.438Z,99.90
2018-10-21T23:23:38.519Z,99.90
2018-10-21T23:26:06.586Z,99.90
2018-10-21T23:28:34.675Z,99.90
2018-10-21T23:31:02.762Z,99.90
2018-10-21T23:33:30.830Z,99.90
2018-10-21T23:35:58.944Z,99.90
2018-10-21T23:38:26.986Z,99.90
2018-10-21T23:40:55.079Z,99.90
2018-10-21T23:43:23.182Z,99.90
2018-10-21T23:45:51.267Z,99.90
2018-10-21T23:48:19.437Z,99.90
2018-10-21T23:50:47.434Z,99.90
2018-10-21T23:53:15.531Z,99.90
2018-10-21T23:55:43.594Z,99.90
2018-10-21T23:58:11.760Z,99.90
